IBE006 LEMD-LPPT
Flight info
| Callsign | IBE006 |
|---|---|
| Flight time | N/A |
| Altitude | 31000 |
| Route | CCS UPULO |
| Aircraft | B772/H-SDE2E3FGHIJ5LORVWXY/LB1D1 |
Departure
| Time | 2026-04-30 07:38 |
|---|---|
| Airport | Adolfo Suárez Madrid–Barajas Airport (LEMD) |
Arrival
| Time | N/A |
|---|---|
| Airport | Lisbon Humberto Delgado Airport (LPPT) |
| Time | Latitude | Longitude | Altitude | Speed | Heading |
|---|---|---|---|---|---|
| 2026-04-30 07:34 | 40.49836 | -3.56656 | 2014 ft | 0 kts | 270° |
| 2026-04-30 07:34 | 40.49836 | -3.56657 | 2014 ft | 0 kts | 270° |
| 2026-04-30 07:34 | 40.49836 | -3.56656 | 2014 ft | 0 kts | 270° |
| 2026-04-30 07:34 | 40.49836 | -3.56642 | 2014 ft | 2 kts | 270° |
| 2026-04-30 07:35 | 40.49836 | -3.56618 | 2014 ft | 3 kts | 270° |
| 2026-04-30 07:35 | 40.49836 | -3.56591 | 2014 ft | 3 kts | 270° |
| 2026-04-30 07:35 | 40.49836 | -3.56564 | 2014 ft | 3 kts | 270° |
| 2026-04-30 07:35 | 40.49836 | -3.56537 | 2014 ft | 3 kts | 270° |
| 2026-04-30 07:36 | 40.49836 | -3.56521 | 2014 ft | 0 kts | 270° |
| 2026-04-30 07:36 | 40.49845 | -3.56547 | 2014 ft | 4 kts | 320° |
| 2026-04-30 07:36 | 40.49909 | -3.56556 | 2014 ft | 4 kts | 32° |
| 2026-04-30 07:36 | 40.49921 | -3.56480 | 2014 ft | 32 kts | 86° |
| 2026-04-30 07:37 | 40.49932 | -3.56128 | 2014 ft | 38 kts | 82° |
| 2026-04-30 07:37 | 40.50061 | -3.55915 | 2014 ft | 34 kts | 7° |
| 2026-04-30 07:37 | 40.50553 | -3.55907 | 2014 ft | 109 kts | 359° |
| 2026-04-30 07:37 | 40.51538 | -3.55914 | 2014 ft | 172 kts | 0° |
| 2026-04-30 07:38 | 40.52896 | -3.55912 | 2186 ft | 210 kts | 0° |
| 2026-04-30 07:38 | 40.54364 | -3.56166 | 2962 ft | 217 kts | 340° |
| 2026-04-30 07:38 | 40.55565 | -3.57344 | 3949 ft | 220 kts | 311° |
| 2026-04-30 07:38 | 40.56531 | -3.59012 | 4468 ft | 239 kts | 301° |
| 2026-04-30 07:39 | 40.57101 | -3.61096 | 5173 ft | 247 kts | 276° |
| 2026-04-30 07:39 | 40.56929 | -3.63392 | 5790 ft | 262 kts | 255° |
| 2026-04-30 07:39 | 40.56081 | -3.65540 | 6012 ft | 268 kts | 236° |
| 2026-04-30 07:39 | 40.54810 | -3.67332 | 6228 ft | 268 kts | 225° |
| 2026-04-30 07:40 | 40.53430 | -3.68944 | 6784 ft | 263 kts | 224° |
| 2026-04-30 07:40 | 40.52039 | -3.70492 | 7399 ft | 261 kts | 223° |
| 2026-04-30 07:40 | 40.50620 | -3.72001 | 8014 ft | 263 kts | 221° |
| 2026-04-30 07:40 | 40.49169 | -3.73475 | 8685 ft | 265 kts | 220° |
| 2026-04-30 07:41 | 40.47697 | -3.74905 | 9465 ft | 267 kts | 219° |
| 2026-04-30 07:41 | 40.46164 | -3.76328 | 10405 ft | 265 kts | 218° |
| 2026-04-30 07:41 | 40.44697 | -3.77739 | 11146 ft | 270 kts | 225° |
| 2026-04-30 07:41 | 40.43450 | -3.79714 | 10973 ft | 286 kts | 239° |
| 2026-04-30 07:42 | 40.42428 | -3.81995 | 10806 ft | 302 kts | 243° |
| 2026-04-30 07:42 | 40.41420 | -3.84492 | 10629 ft | 318 kts | 244° |
| 2026-04-30 07:42 | 40.40402 | -3.87156 | 10445 ft | 335 kts | 245° |
| 2026-04-30 07:42 | 40.39366 | -3.89973 | 10249 ft | 351 kts | 246° |
| 2026-04-30 07:43 | 40.38316 | -3.92912 | 10036 ft | 358 kts | 246° |
| 2026-04-30 07:43 | 40.37281 | -3.95873 | 9784 ft | 353 kts | 247° |
| 2026-04-30 07:43 | 40.36293 | -3.98751 | 9489 ft | 341 kts | 247° |
| 2026-04-30 07:43 | 40.35333 | -4.01584 | 9430 ft | 340 kts | 248° |
| 2026-04-30 07:44 | 40.34378 | -4.04427 | 10118 ft | 340 kts | 248° |
| 2026-04-30 07:44 | 40.33424 | -4.07278 | 10959 ft | 343 kts | 248° |
| 2026-04-30 07:44 | 40.32462 | -4.10164 | 11738 ft | 347 kts | 248° |
| 2026-04-30 07:44 | 40.31491 | -4.13080 | 12483 ft | 351 kts | 248° |
| 2026-04-30 07:45 | 40.30512 | -4.16029 | 13202 ft | 355 kts | 248° |
| 2026-04-30 07:45 | 40.29523 | -4.19007 | 13900 ft | 358 kts | 248° |
| 2026-04-30 07:45 | 40.28524 | -4.22019 | 14579 ft | 362 kts | 248° |
| 2026-04-30 07:45 | 40.27518 | -4.25053 | 15236 ft | 366 kts | 248° |
| 2026-04-30 07:46 | 40.26498 | -4.28126 | 15880 ft | 369 kts | 248° |
| 2026-04-30 07:46 | 40.25820 | -4.30169 | 16299 ft | 371 kts | 248° |
| 2026-04-30 07:46 | 40.24786 | -4.33285 | 16925 ft | 375 kts | 248° |
| 2026-04-30 07:46 | 40.23743 | -4.36423 | 17539 ft | 378 kts | 248° |
| 2026-04-30 07:47 | 40.22689 | -4.39595 | 18146 ft | 382 kts | 248° |
| 2026-04-30 07:47 | 40.21624 | -4.42796 | 18748 ft | 385 kts | 248° |
| 2026-04-30 07:47 | 40.20550 | -4.46020 | 19334 ft | 388 kts | 248° |
| 2026-04-30 07:47 | 40.19467 | -4.49270 | 19885 ft | 392 kts | 248° |
| 2026-04-30 07:48 | 40.18372 | -4.52549 | 20434 ft | 395 kts | 248° |
| 2026-04-30 07:48 | 40.17265 | -4.55861 | 20983 ft | 399 kts | 248° |
| 2026-04-30 07:48 | 40.16151 | -4.59194 | 21530 ft | 402 kts | 248° |
| 2026-04-30 07:48 | 40.15025 | -4.62556 | 22081 ft | 406 kts | 248° |
| 2026-04-30 07:49 | 40.13888 | -4.65947 | 22635 ft | 409 kts | 248° |
| 2026-04-30 07:49 | 40.12739 | -4.69369 | 23187 ft | 413 kts | 248° |
| 2026-04-30 07:49 | 40.11583 | -4.72812 | 23709 ft | 416 kts | 248° |
| 2026-04-30 07:49 | 40.10413 | -4.76289 | 24232 ft | 420 kts | 248° |
| 2026-04-30 07:50 | 40.09234 | -4.79790 | 24751 ft | 423 kts | 248° |
| 2026-04-30 07:50 | 40.08044 | -4.83317 | 25264 ft | 427 kts | 248° |
| 2026-04-30 07:50 | 40.06840 | -4.86884 | 25779 ft | 430 kts | 247° |
| 2026-04-30 07:50 | 40.05628 | -4.90466 | 26291 ft | 434 kts | 247° |
| 2026-04-30 07:51 | 40.04403 | -4.94084 | 26806 ft | 437 kts | 247° |
| 2026-04-30 07:51 | 40.03168 | -4.97728 | 27321 ft | 441 kts | 247° |
| 2026-04-30 07:51 | 40.01923 | -5.01398 | 27834 ft | 444 kts | 247° |
| 2026-04-30 07:51 | 40.00666 | -5.05095 | 28326 ft | 448 kts | 247° |
| 2026-04-30 07:52 | 39.99397 | -5.08825 | 28802 ft | 451 kts | 247° |
| 2026-04-30 07:52 | 39.98121 | -5.12568 | 29251 ft | 455 kts | 247° |
| 2026-04-30 07:52 | 39.96829 | -5.16356 | 29668 ft | 458 kts | 247° |
| 2026-04-30 07:52 | 39.95528 | -5.20162 | 30053 ft | 461 kts | 247° |
| 2026-04-30 07:53 | 39.94221 | -5.23984 | 30411 ft | 464 kts | 247° |
| 2026-04-30 07:53 | 39.92903 | -5.27829 | 30758 ft | 466 kts | 247° |
| 2026-04-30 07:53 | 39.91576 | -5.31699 | 30978 ft | 468 kts | 247° |
| 2026-04-30 07:54 | 39.88935 | -5.39382 | 30993 ft | 468 kts | 247° |
| 2026-04-30 07:54 | 39.86269 | -5.47116 | 30996 ft | 468 kts | 247° |
| 2026-04-30 07:55 | 39.83600 | -5.54841 | 30996 ft | 468 kts | 247° |
| 2026-04-30 07:55 | 39.80923 | -5.62564 | 30996 ft | 468 kts | 247° |
| 2026-04-30 07:56 | 39.78242 | -5.70281 | 30996 ft | 468 kts | 247° |
| 2026-04-30 07:56 | 39.75551 | -5.78003 | 30996 ft | 468 kts | 247° |
| 2026-04-30 07:57 | 39.72861 | -5.85706 | 30996 ft | 468 kts | 246° |
| 2026-04-30 07:57 | 39.70164 | -5.93406 | 30996 ft | 468 kts | 246° |
| 2026-04-30 07:58 | 39.67463 | -6.01096 | 30996 ft | 468 kts | 246° |
| 2026-04-30 07:58 | 39.64753 | -6.08790 | 30996 ft | 468 kts | 246° |
| 2026-04-30 07:59 | 39.62042 | -6.16470 | 30996 ft | 468 kts | 246° |
| 2026-04-30 07:59 | 39.59328 | -6.24144 | 30996 ft | 468 kts | 246° |
| 2026-04-30 08:00 | 39.55249 | -6.35656 | 30996 ft | 468 kts | 246° |
| 2026-04-30 08:00 | 39.52524 | -6.43326 | 30996 ft | 468 kts | 246° |
| 2026-04-30 08:01 | 39.49683 | -6.50858 | 30996 ft | 469 kts | 244° |
| 2026-04-30 08:01 | 39.46715 | -6.58370 | 30996 ft | 469 kts | 244° |
| 2026-04-30 08:02 | 39.42289 | -6.69652 | 30996 ft | 469 kts | 244° |
| 2026-04-30 08:03 | 39.36395 | -6.84682 | 30996 ft | 469 kts | 244° |
| 2026-04-30 08:04 | 39.33443 | -6.92191 | 30996 ft | 469 kts | 244° |
| 2026-04-30 08:04 | 39.30486 | -6.99696 | 30996 ft | 469 kts | 244° |
| 2026-04-30 08:05 | 39.27527 | -7.07191 | 30996 ft | 469 kts | 244° |
| 2026-04-30 08:05 | 39.24559 | -7.14688 | 30996 ft | 469 kts | 244° |
| 2026-04-30 08:06 | 39.21591 | -7.22169 | 30996 ft | 469 kts | 244° |
| 2026-04-30 08:06 | 39.18615 | -7.29650 | 30996 ft | 469 kts | 244° |
| 2026-04-30 08:07 | 39.15637 | -7.37119 | 30996 ft | 469 kts | 244° |
| 2026-04-30 08:07 | 39.12653 | -7.44587 | 30996 ft | 469 kts | 244° |
| 2026-04-30 08:08 | 39.09665 | -7.52044 | 30996 ft | 469 kts | 244° |
| 2026-04-30 08:08 | 39.06672 | -7.59507 | 30996 ft | 469 kts | 244° |
| 2026-04-30 08:09 | 39.04608 | -7.67395 | 30998 ft | 467 kts | 259° |
| 2026-04-30 08:09 | 39.04116 | -7.71521 | 30757 ft | 465 kts | 263° |
| 2026-04-30 08:09 | 39.03796 | -7.75636 | 30181 ft | 460 kts | 265° |
| 2026-04-30 08:09 | 39.03571 | -7.79717 | 29610 ft | 455 kts | 266° |
| 2026-04-30 08:10 | 39.03382 | -7.83766 | 29036 ft | 451 kts | 266° |